createdAt,value
2019-02-10T00:00:11.970Z,2.25
2019-02-10T00:01:17.262Z,2.00
2019-02-10T00:02:20.838Z,2.15
2019-02-10T00:03:24.424Z,2.40
2019-02-10T00:04:28.053Z,2.62
2019-02-10T00:05:31.622Z,2.15
2019-02-10T00:06:35.325Z,1.98
2019-02-10T00:07:38.909Z,2.58
2019-02-10T00:08:42.484Z,2.72
2019-02-10T00:09:46.109Z,2.22
2019-02-10T00:10:49.702Z,2.35
2019-02-10T00:11:53.282Z,2.67
2019-02-10T00:13:34.087Z,2.58
2019-02-10T00:14:37.893Z,2.40
2019-02-10T00:15:41.486Z,2.47
2019-02-10T00:16:45.188Z,2.65
2019-02-10T00:17:48.793Z,2.02
2019-02-10T00:18:52.442Z,2.75
2019-02-10T00:19:56.043Z,2.50
2019-02-10T00:20:59.702Z,2.80
2019-02-10T00:22:03.283Z,2.42
2019-02-10T00:23:06.865Z,2.10
2019-02-10T00:24:10.516Z,1.98
2019-02-10T00:25:14.131Z,2.10
2019-02-10T00:26:17.807Z,2.42
2019-02-10T00:27:21.395Z,3.08
2019-02-10T00:28:24.962Z,2.47
2019-02-10T00:29:28.535Z,2.00
2019-02-10T00:30:32.185Z,2.95
2019-02-10T00:31:35.815Z,2.17
2019-02-10T00:32:39.540Z,2.40
2019-02-10T00:33:43.141Z,2.45
2019-02-10T00:34:46.814Z,2.10
2019-02-10T00:35:50.582Z,2.00
2019-02-10T00:36:54.203Z,1.90
2019-02-10T00:37:57.779Z,2.22
2019-02-10T00:39:01.376Z,2.67
2019-02-10T00:40:06.254Z,2.80
2019-02-10T00:41:09.830Z,2.10
2019-02-10T00:42:13.425Z,2.17
2019-02-10T00:43:17.016Z,2.15
2019-02-10T00:44:20.654Z,2.37
2019-02-10T00:45:24.238Z,2.15
2019-02-10T00:46:27.815Z,1.65
2019-02-10T00:47:31.401Z,3.27
2019-02-10T00:48:34.976Z,2.50
2019-02-10T00:49:38.631Z,2.50
2019-02-10T00:50:42.219Z,2.67
2019-02-10T00:51:45.815Z,2.40
2019-02-10T00:52:49.432Z,2.52
2019-02-10T00:53:53.047Z,2.45
2019-02-10T00:54:56.629Z,1.90
2019-02-10T00:56:00.300Z,2.40
2019-02-10T00:57:03.885Z,2.20
2019-02-10T00:58:07.529Z,2.12
2019-02-10T00:59:11.105Z,2.62
2019-02-10T01:00:14.748Z,2.60
2019-02-10T01:01:18.350Z,2.30
2019-02-10T01:02:21.943Z,2.30
2019-02-10T01:03:25.566Z,2.10
2019-02-10T01:04:29.169Z,3.15
2019-02-10T01:05:32.784Z,2.75
2019-02-10T01:06:41.533Z,2.05
2019-02-10T01:07:41.748Z,3.05
2019-02-10T01:08:45.335Z,2.47
2019-02-10T01:09:48.949Z,2.62
2019-02-10T01:10:52.568Z,2.42
2019-02-10T01:11:56.157Z,2.58
2019-02-10T01:12:59.820Z,2.77
2019-02-10T01:14:03.436Z,2.80
2019-02-10T01:15:07.901Z,2.52
2019-02-10T01:16:11.497Z,2.10
2019-02-10T01:17:15.092Z,2.47
2019-02-10T01:18:18.699Z,3.08
2019-02-10T01:19:22.386Z,2.10
2019-02-10T01:20:25.999Z,2.65
2019-02-10T01:21:29.823Z,2.10
2019-02-10T01:22:33.428Z,2.95
2019-02-10T01:23:37.075Z,2.50
2019-02-10T01:24:40.733Z,2.85
2019-02-10T01:25:44.336Z,2.40
2019-02-10T01:26:47.987Z,2.42
2019-02-10T01:27:51.637Z,2.85
2019-02-10T01:28:55.306Z,2.47
2019-02-10T01:29:58.911Z,2.90
2019-02-10T01:31:02.654Z,2.65
2019-02-10T01:32:06.378Z,2.50
2019-02-10T01:33:10.123Z,3.52
2019-02-10T01:34:13.790Z,2.20
2019-02-10T01:35:17.400Z,2.35
2019-02-10T01:36:21.015Z,1.92
2019-02-10T01:37:24.656Z,2.60
2019-02-10T01:38:28.273Z,2.52
2019-02-10T01:39:31.864Z,2.72
2019-02-10T01:40:35.453Z,2.22
2019-02-10T01:41:39.027Z,1.92
2019-02-10T01:42:42.645Z,2.50
2019-02-10T01:43:46.274Z,2.67
2019-02-10T01:44:49.868Z,3.10
2019-02-10T01:45:53.484Z,2.50
2019-02-10T01:46:57.131Z,2.22
2019-02-10T01:48:00.781Z,2.08
2019-02-10T01:49:04.479Z,2.95
2019-02-10T01:50:10.217Z,2.40
2019-02-10T01:51:13.797Z,2.50
2019-02-10T01:52:17.389Z,2.17
2019-02-10T01:53:20.993Z,3.08
2019-02-10T01:54:24.731Z,2.02
2019-02-10T01:55:28.332Z,2.80
2019-02-10T01:56:31.938Z,3.15
2019-02-10T01:57:35.542Z,2.27
2019-02-10T01:58:39.132Z,2.80
2019-02-10T01:59:42.837Z,2.80
2019-02-10T02:00:46.435Z,2.40
2019-02-10T02:01:50.091Z,2.70
2019-02-10T02:02:53.762Z,3.42
2019-02-10T02:03:57.347Z,2.80
2019-02-10T02:05:01.138Z,2.50
2019-02-10T02:06:04.845Z,1.92
2019-02-10T02:07:08.450Z,1.98
2019-02-10T02:08:12.041Z,2.65
2019-02-10T02:09:15.661Z,2.25
2019-02-10T02:10:19.363Z,2.90
2019-02-10T02:11:23.024Z,2.40
2019-02-10T02:12:26.629Z,2.45
2019-02-10T02:13:30.230Z,2.27
2019-02-10T02:14:33.825Z,3.05
2019-02-10T02:15:37.519Z,2.60
2019-02-10T02:16:41.188Z,2.70
2019-02-10T02:17:44.860Z,2.15
2019-02-10T02:18:48.464Z,3.10
2019-02-10T02:19:52.315Z,2.87
2019-02-10T02:20:55.947Z,2.67
2019-02-10T02:21:59.578Z,2.40
2019-02-10T02:23:03.174Z,2.60
2019-02-10T02:24:06.825Z,2.80
2019-02-10T02:25:12.665Z,2.67
2019-02-10T02:26:16.274Z,3.10
2019-02-10T02:27:19.869Z,2.98
2019-02-10T02:28:23.469Z,3.20
2019-02-10T02:29:27.056Z,2.27
2019-02-10T02:30:30.656Z,2.55
2019-02-10T02:31:34.287Z,3.20
2019-02-10T02:32:37.887Z,2.80
2019-02-10T02:33:41.553Z,3.10
2019-02-10T02:34:45.155Z,2.87
2019-02-10T02:35:48.737Z,2.47
2019-02-10T02:36:52.349Z,2.10
2019-02-10T02:37:55.945Z,2.77
2019-02-10T02:38:59.533Z,2.62
2019-02-10T02:40:03.413Z,2.58
2019-02-10T02:41:07.010Z,2.37
2019-02-10T02:42:10.679Z,3.15
2019-02-10T02:43:14.264Z,3.22
2019-02-10T02:44:17.864Z,3.37
2019-02-10T02:45:21.555Z,2.60
2019-02-10T02:46:25.187Z,2.55
2019-02-10T02:47:28.757Z,3.50
2019-02-10T02:48:32.362Z,3.02
2019-02-10T02:49:35.945Z,2.90
2019-02-10T02:50:39.601Z,2.87
2019-02-10T02:51:43.181Z,3.08
2019-02-10T02:52:46.835Z,2.50
2019-02-10T02:53:50.409Z,2.25
2019-02-10T02:54:54.000Z,2.80
2019-02-10T02:55:57.627Z,2.45
2019-02-10T02:57:01.238Z,2.85
2019-02-10T02:58:04.814Z,3.37
2019-02-10T02:59:08.399Z,2.55
2019-02-10T03:00:12.064Z,3.00
2019-02-10T03:01:15.757Z,2.92
2019-02-10T03:02:19.337Z,2.27
2019-02-10T03:03:22.941Z,2.10
2019-02-10T03:04:26.556Z,2.40
2019-02-10T03:05:30.221Z,2.40
2019-02-10T03:06:45.929Z,2.15
2019-02-10T03:07:49.574Z,2.55
2019-02-10T03:08:53.172Z,2.40
2019-02-10T03:09:56.774Z,2.60
2019-02-10T03:11:00.383Z,1.82
2019-02-10T03:12:04.069Z,1.92
2019-02-10T03:13:07.651Z,2.83
2019-02-10T03:14:11.245Z,2.30
2019-02-10T03:15:14.881Z,2.45
2019-02-10T03:16:18.460Z,2.50
2019-02-10T03:17:22.078Z,2.70
2019-02-10T03:18:25.656Z,2.95
2019-02-10T03:19:29.259Z,2.87
2019-02-10T03:20:32.898Z,2.02
2019-02-10T03:21:36.555Z,2.40
2019-02-10T03:22:40.161Z,2.65
2019-02-10T03:23:43.746Z,2.95
2019-02-10T03:24:47.381Z,3.55
2019-02-10T03:25:50.999Z,2.45
2019-02-10T03:26:54.590Z,3.50
2019-02-10T03:27:58.248Z,2.80
2019-02-10T03:29:01.846Z,2.40
2019-02-10T03:30:10.795Z,2.65
2019-02-10T03:31:14.426Z,1.77
2019-02-10T03:32:18.037Z,2.25
2019-02-10T03:33:21.790Z,1.98
2019-02-10T03:34:25.355Z,2.15
2019-02-10T03:35:28.986Z,2.58
2019-02-10T03:36:32.598Z,2.77
2019-02-10T03:37:36.274Z,2.20
2019-02-10T03:38:39.859Z,2.40
2019-02-10T03:39:43.533Z,2.85
2019-02-10T03:40:47.155Z,2.65
2019-02-10T03:41:50.766Z,2.67
2019-02-10T03:42:54.397Z,2.80
2019-02-10T03:43:58.041Z,2.62
2019-02-10T03:45:01.607Z,2.62
2019-02-10T03:46:05.238Z,2.12
2019-02-10T03:47:08.823Z,2.87
2019-02-10T03:48:12.441Z,2.83
2019-02-10T03:49:16.042Z,2.77
2019-02-10T03:50:19.713Z,3.47
2019-02-10T03:51:23.307Z,2.45
2019-02-10T03:52:26.920Z,2.65
2019-02-10T03:53:30.511Z,2.60
2019-02-10T03:54:34.106Z,2.90
2019-02-10T03:55:37.823Z,2.20
2019-02-10T03:56:41.442Z,2.55
2019-02-10T03:57:45.021Z,2.17
2019-02-10T03:58:48.609Z,2.30
2019-02-10T03:59:52.308Z,3.10
2019-02-10T04:00:55.967Z,2.95
2019-02-10T04:01:59.617Z,2.95
2019-02-10T04:03:03.211Z,3.77
2019-02-10T04:04:06.854Z,2.40
2019-02-10T04:05:10.597Z,3.10
2019-02-10T04:06:14.250Z,3.37
2019-02-10T04:07:17.917Z,2.92
2019-02-10T04:08:21.526Z,2.20
2019-02-10T04:09:25.119Z,2.67
2019-02-10T04:10:28.740Z,2.55
2019-02-10T04:11:32.358Z,3.47
2019-02-10T04:12:35.928Z,2.50
2019-02-10T04:13:39.604Z,3.10
2019-02-10T04:14:43.250Z,2.95
2019-02-10T04:15:46.877Z,1.90
2019-02-10T04:16:50.553Z,3.00
2019-02-10T04:17:54.131Z,2.50
2019-02-10T04:18:57.713Z,3.27
2019-02-10T04:20:01.313Z,2.70
2019-02-10T04:21:05.120Z,3.05
2019-02-10T04:22:08.711Z,2.20
2019-02-10T04:23:12.293Z,2.72
2019-02-10T04:24:15.883Z,3.12
2019-02-10T04:25:19.467Z,3.20
2019-02-10T04:26:23.175Z,2.62
2019-02-10T04:27:26.806Z,4.45
2019-02-10T04:28:30.402Z,2.30
2019-02-10T04:29:34.020Z,3.12
2019-02-10T04:30:37.659Z,3.40
2019-02-10T04:31:41.331Z,2.98
2019-02-10T04:32:44.923Z,2.70
2019-02-10T04:33:48.515Z,3.02
2019-02-10T04:34:52.114Z,3.27
2019-02-10T04:35:55.700Z,2.95
2019-02-10T04:36:59.295Z,3.80
2019-02-10T04:38:02.912Z,2.98
2019-02-10T04:39:06.566Z,3.62
2019-02-10T04:40:10.138Z,3.22
2019-02-10T04:41:13.744Z,2.98
2019-02-10T04:42:17.378Z,2.60
2019-02-10T04:43:20.974Z,2.85
2019-02-10T04:44:24.584Z,3.12
2019-02-10T04:45:28.186Z,2.35
2019-02-10T04:46:31.803Z,3.15
2019-02-10T04:47:35.445Z,3.67
2019-02-10T04:48:39.037Z,3.60
2019-02-10T04:49:42.662Z,3.17
2019-02-10T04:50:46.277Z,3.42
2019-02-10T04:51:49.861Z,2.58
2019-02-10T04:52:53.486Z,2.50
2019-02-10T04:53:57.069Z,2.58
2019-02-10T04:55:00.661Z,3.60
2019-02-10T04:56:11.953Z,3.02
2019-02-10T04:57:15.550Z,2.90
2019-02-10T04:58:19.272Z,3.27
2019-02-10T04:59:22.909Z,2.90
2019-02-10T05:00:26.504Z,2.92
2019-02-10T05:01:30.220Z,3.50
2019-02-10T05:02:33.921Z,3.22
2019-02-10T05:03:37.510Z,3.27
2019-02-10T05:04:41.149Z,2.85
2019-02-10T05:05:44.756Z,2.50
2019-02-10T05:06:48.392Z,2.60
2019-02-10T05:07:54.440Z,2.95
2019-02-10T05:08:57.261Z,2.90
2019-02-10T05:10:00.941Z,2.72
2019-02-10T05:11:04.591Z,2.72
2019-02-10T05:12:08.200Z,2.95
2019-02-10T05:13:11.792Z,2.80
2019-02-10T05:14:15.394Z,2.27
2019-02-10T05:15:19.040Z,3.30
2019-02-10T05:16:22.616Z,2.77
2019-02-10T05:17:26.211Z,2.92
2019-02-10T05:18:29.894Z,2.60
2019-02-10T05:19:33.470Z,2.08
2019-02-10T05:20:37.174Z,2.35
2019-02-10T05:21:40.783Z,2.30
2019-02-10T05:22:44.376Z,2.72
2019-02-10T05:23:47.966Z,3.25
2019-02-10T05:24:51.547Z,2.40
2019-02-10T05:25:55.180Z,2.33
2019-02-10T05:26:58.824Z,3.25
2019-02-10T05:28:02.397Z,2.62
2019-02-10T05:29:05.983Z,3.15
2019-02-10T05:30:09.708Z,3.25
2019-02-10T05:31:13.344Z,2.50
2019-02-10T05:32:16.968Z,2.02
2019-02-10T05:33:20.600Z,2.00
2019-02-10T05:34:24.244Z,2.50
2019-02-10T05:35:27.833Z,2.25
2019-02-10T05:36:31.491Z,3.52
2019-02-10T05:37:35.097Z,2.10
2019-02-10T05:38:38.738Z,2.50
2019-02-10T05:39:42.323Z,2.75
2019-02-10T05:40:45.911Z,2.15
2019-02-10T05:41:49.493Z,2.33
2019-02-10T05:42:53.097Z,2.75
2019-02-10T05:43:56.731Z,3.42
2019-02-10T05:45:00.378Z,2.40
2019-02-10T05:46:03.961Z,2.30
2019-02-10T05:47:07.532Z,2.17
2019-02-10T05:48:11.112Z,2.50
2019-02-10T05:49:14.690Z,2.85
2019-02-10T05:50:18.331Z,2.70
2019-02-10T05:51:21.951Z,3.27
2019-02-10T05:52:25.531Z,2.47
2019-02-10T05:53:29.115Z,2.77
2019-02-10T05:54:32.717Z,3.20
2019-02-10T05:55:36.353Z,2.22
2019-02-10T05:56:39.927Z,3.30
2019-02-10T05:57:43.514Z,1.70
2019-02-10T05:58:47.127Z,2.85
2019-02-10T05:59:50.774Z,2.45
2019-02-10T06:00:54.427Z,2.20
2019-02-10T06:02:04.967Z,2.65
2019-02-10T06:03:08.563Z,2.20
2019-02-10T06:04:12.222Z,2.70
2019-02-10T06:05:18.873Z,2.12
2019-02-10T06:06:22.517Z,2.70
2019-02-10T06:07:26.136Z,2.00
2019-02-10T06:08:29.708Z,2.08
2019-02-10T06:09:33.311Z,2.52
2019-02-10T06:10:36.961Z,2.37
2019-02-10T06:11:40.621Z,2.20
2019-02-10T06:12:44.205Z,2.62
2019-02-10T06:13:47.786Z,2.20
2019-02-10T06:14:51.364Z,2.02
2019-02-10T06:15:54.960Z,1.95
2019-02-10T06:16:58.602Z,1.92
2019-02-10T06:18:02.253Z,3.00
2019-02-10T06:19:05.916Z,2.05
2019-02-10T06:20:10.980Z,2.35
2019-02-10T06:21:14.562Z,2.50
2019-02-10T06:22:18.150Z,2.20
2019-02-10T06:23:21.732Z,2.50
2019-02-10T06:24:25.310Z,2.22
2019-02-10T06:25:28.973Z,2.40
2019-02-10T06:26:32.529Z,2.30
2019-02-10T06:27:36.113Z,2.50
2019-02-10T06:28:40.950Z,2.50
2019-02-10T06:29:44.606Z,2.70
2019-02-10T06:30:48.236Z,3.10
2019-02-10T06:31:51.806Z,2.20
2019-02-10T06:32:55.414Z,2.50
2019-02-10T06:33:58.997Z,2.50
2019-02-10T06:35:02.524Z,2.10
2019-02-10T06:36:06.132Z,2.50
2019-02-10T06:37:09.842Z,2.62
2019-02-10T06:38:21.928Z,2.40
2019-02-10T06:39:18.640Z,2.05
2019-02-10T06:40:22.207Z,2.67
2019-02-10T06:41:25.845Z,2.77
2019-02-10T06:42:29.419Z,2.60
2019-02-10T06:43:33.004Z,2.75
2019-02-10T06:44:36.593Z,2.35
2019-02-10T06:45:40.172Z,2.02
2019-02-10T06:46:43.829Z,2.27
2019-02-10T06:47:47.413Z,2.90
2019-02-10T06:48:51.083Z,2.00
2019-02-10T06:49:54.728Z,1.77
2019-02-10T06:50:58.320Z,2.42
2019-02-10T06:52:01.947Z,2.35
2019-02-10T06:53:05.543Z,2.10
2019-02-10T06:54:09.141Z,2.20
2019-02-10T06:55:12.720Z,2.45
2019-02-10T06:56:16.313Z,2.95
2019-02-10T06:57:20.019Z,2.25
2019-02-10T06:58:23.598Z,2.27
2019-02-10T06:59:31.791Z,2.55
2019-02-10T07:00:49.115Z,2.05
2019-02-10T07:01:54.318Z,1.77
2019-02-10T07:03:31.019Z,2.75
2019-02-10T07:04:34.613Z,2.45
2019-02-10T07:05:38.261Z,2.47
2019-02-10T07:06:41.914Z,1.65
2019-02-10T07:07:45.576Z,2.25
2019-02-10T07:08:49.148Z,1.60
2019-02-10T07:09:52.803Z,2.05
2019-02-10T07:10:56.380Z,2.20
2019-02-10T07:12:01.535Z,2.00
2019-02-10T07:13:05.112Z,2.40
2019-02-10T07:14:14.576Z,2.35
2019-02-10T07:15:54.799Z,1.85
2019-02-10T07:17:13.466Z,1.92
2019-02-10T07:18:53.327Z,1.55
2019-02-10T07:20:32.041Z,2.00
2019-02-10T07:21:35.697Z,2.02
2019-02-10T07:22:45.033Z,2.20
2019-02-10T07:24:00.525Z,1.90
2019-02-10T07:25:16.112Z,2.00
2019-02-10T07:26:21.464Z,1.92
2019-02-10T07:27:27.084Z,1.55
2019-02-10T07:28:33.826Z,2.42
2019-02-10T07:30:00.083Z,1.95
2019-02-10T07:31:03.736Z,2.00
2019-02-10T07:32:08.851Z,1.60
2019-02-10T07:33:15.586Z,1.45
2019-02-10T07:34:49.580Z,2.05
2019-02-10T07:36:14.082Z,1.55
2019-02-10T07:37:20.748Z,2.12
2019-02-10T07:38:52.346Z,2.20
2019-02-10T07:40:13.895Z,2.95
2019-02-10T07:41:49.167Z,1.60
2019-02-10T07:42:58.426Z,1.92
2019-02-10T07:44:10.860Z,1.98
2019-02-10T07:45:29.779Z,1.80
2019-02-10T07:46:39.176Z,1.75
2019-02-10T07:47:54.746Z,1.70
2019-02-10T07:49:18.992Z,1.80
2019-02-10T07:50:56.135Z,1.65
2019-02-10T07:52:24.688Z,1.35
2019-02-10T07:53:37.043Z,1.77
2019-02-10T07:54:46.741Z,1.60
2019-02-10T07:56:02.300Z,1.77
2019-02-10T07:57:25.435Z,1.72
2019-02-10T07:58:43.718Z,1.67
2019-02-10T07:59:56.453Z,1.82
2019-02-10T08:01:09.060Z,1.65
2019-02-10T08:02:31.937Z,1.85
2019-02-10T08:03:47.181Z,1.60
2019-02-10T08:04:53.851Z,1.75
2019-02-10T08:06:21.384Z,1.80
2019-02-10T08:07:53.676Z,2.25
2019-02-10T08:09:09.489Z,1.95
2019-02-10T08:10:33.565Z,1.85
2019-02-10T08:11:52.096Z,6.80
2019-02-10T08:12:58.776Z,5.35
2019-02-10T08:14:38.631Z,6.72
2019-02-10T08:15:54.594Z,7.50
2019-02-10T08:17:01.299Z,3.50
2019-02-10T08:18:17.138Z,2.87
2019-02-10T08:19:29.348Z,2.10
2019-02-10T08:20:38.476Z,3.10
2019-02-10T08:21:50.966Z,6.87
2019-02-10T08:23:08.875Z,3.62
2019-02-10T08:24:24.513Z,3.95
2019-02-10T08:25:48.902Z,4.50
2019-02-10T08:26:58.364Z,3.10
2019-02-10T08:28:26.312Z,6.00
2019-02-10T08:29:35.665Z,3.10
2019-02-10T08:30:42.391Z,3.58
2019-02-10T08:32:04.057Z,1.60
2019-02-10T08:33:28.988Z,2.22
2019-02-10T08:34:35.650Z,2.30
2019-02-10T08:35:48.057Z,2.10
2019-02-10T08:37:15.580Z,2.95
2019-02-10T08:38:54.540Z,3.05
2019-02-10T08:40:09.315Z,2.90
2019-02-10T08:41:21.389Z,1.82
2019-02-10T08:42:49.243Z,2.15
2019-02-10T08:44:10.947Z,2.42
2019-02-10T08:45:23.454Z,1.90
2019-02-10T08:46:32.965Z,2.10
2019-02-10T08:47:40.296Z,1.35
2019-02-10T08:48:52.594Z,2.02
2019-02-10T08:50:19.912Z,2.05
2019-02-10T08:51:48.392Z,3.90
2019-02-10T08:52:55.601Z,1.82
2019-02-10T08:53:59.840Z,1.95
2019-02-10T08:55:03.736Z,2.05
2019-02-10T08:56:07.655Z,1.57
2019-02-10T08:57:11.977Z,1.92
2019-02-10T08:58:15.919Z,1.65
2019-02-10T08:59:19.839Z,2.05
2019-02-10T09:00:23.734Z,1.90
2019-02-10T09:01:27.662Z,1.47
2019-02-10T09:02:31.821Z,1.40
2019-02-10T09:03:37.179Z,2.10
2019-02-10T09:04:41.137Z,1.85
2019-02-10T09:05:46.101Z,1.60
2019-02-10T09:06:52.575Z,1.60
2019-02-10T09:07:56.759Z,1.50
2019-02-10T09:09:02.713Z,1.90
2019-02-10T09:10:09.523Z,1.57
2019-02-10T09:11:13.305Z,1.80
2019-02-10T09:12:16.957Z,1.55
2019-02-10T09:13:20.583Z,1.70
2019-02-10T09:14:24.190Z,1.85
2019-02-10T09:15:27.802Z,2.05
2019-02-10T09:16:31.389Z,1.60
2019-02-10T09:17:34.965Z,2.50
2019-02-10T09:18:38.726Z,1.80
2019-02-10T09:19:42.301Z,1.20
2019-02-10T09:20:46.003Z,1.75
2019-02-10T09:21:49.575Z,2.00
2019-02-10T09:22:53.162Z,1.60
2019-02-10T09:23:56.743Z,1.57
2019-02-10T09:25:00.427Z,1.60
2019-02-10T09:26:04.212Z,1.67
2019-02-10T09:27:07.816Z,1.50
2019-02-10T09:28:11.409Z,2.00
2019-02-10T09:29:15.039Z,1.85
2019-02-10T09:30:18.639Z,1.87
2019-02-10T09:31:22.205Z,3.27
2019-02-10T09:32:25.845Z,2.30
2019-02-10T09:33:29.421Z,1.70
2019-02-10T09:34:33.105Z,2.70
2019-02-10T09:35:36.755Z,2.52
2019-02-10T09:36:40.333Z,1.70
2019-02-10T09:37:43.916Z,1.95
2019-02-10T09:38:47.493Z,1.70
2019-02-10T09:39:51.076Z,1.57
2019-02-10T09:40:54.694Z,1.20
2019-02-10T09:41:58.304Z,1.50
2019-02-10T09:43:01.928Z,1.70
2019-02-10T09:44:05.596Z,1.70
2019-02-10T09:45:11.419Z,2.00
2019-02-10T09:46:15.058Z,1.80
2019-02-10T09:47:18.649Z,1.50
2019-02-10T09:48:22.224Z,1.50
2019-02-10T09:49:25.808Z,1.27
2019-02-10T09:50:29.402Z,1.72
2019-02-10T09:51:33.030Z,2.08
2019-02-10T09:52:36.598Z,1.40
2019-02-10T09:53:40.177Z,1.40
2019-02-10T09:54:43.836Z,1.50
2019-02-10T09:55:47.433Z,1.55
2019-02-10T09:56:51.073Z,1.75
2019-02-10T09:57:54.720Z,1.60
2019-02-10T09:58:58.368Z,1.40
2019-02-10T10:00:01.958Z,1.72
2019-02-10T10:01:05.526Z,1.70
2019-02-10T10:02:09.118Z,1.27
2019-02-10T10:03:12.714Z,1.65
2019-02-10T10:04:16.336Z,1.80
2019-02-10T10:05:19.932Z,2.15
2019-02-10T10:06:23.509Z,1.77
2019-02-10T10:07:27.116Z,1.67
2019-02-10T10:08:30.686Z,1.62
2019-02-10T10:09:34.312Z,2.45
2019-02-10T10:10:37.889Z,1.80
2019-02-10T10:11:41.468Z,1.50
2019-02-10T10:12:45.046Z,1.57
2019-02-10T10:13:48.699Z,1.65
2019-02-10T10:14:52.344Z,1.67
2019-02-10T10:15:55.935Z,1.37
2019-02-10T10:16:59.521Z,1.82
2019-02-10T10:18:03.112Z,1.77
2019-02-10T10:19:06.739Z,2.08
2019-02-10T10:20:12.868Z,1.95
2019-02-10T10:21:16.555Z,2.98
2019-02-10T10:22:20.147Z,2.42
2019-02-10T10:23:23.765Z,1.82
2019-02-10T10:24:27.344Z,1.62
2019-02-10T10:25:30.917Z,1.70
2019-02-10T10:26:34.508Z,1.90
2019-02-10T10:27:38.199Z,1.87
2019-02-10T10:28:41.837Z,1.90
2019-02-10T10:29:45.441Z,1.77
2019-02-10T10:30:49.056Z,1.42
2019-02-10T10:31:52.662Z,1.25
2019-02-10T10:32:56.295Z,1.40
2019-02-10T10:33:59.865Z,1.67
2019-02-10T10:35:03.579Z,1.82
2019-02-10T10:36:07.170Z,2.05
2019-02-10T10:37:10.762Z,1.50
2019-02-10T10:38:14.401Z,1.40
2019-02-10T10:39:17.975Z,2.10
2019-02-10T10:40:21.660Z,1.90
2019-02-10T10:41:25.239Z,2.25
2019-02-10T10:42:28.831Z,1.77
2019-02-10T10:43:32.440Z,1.77
2019-02-10T10:44:36.018Z,2.17
2019-02-10T10:45:39.702Z,1.55
2019-02-10T10:46:43.312Z,2.98
2019-02-10T10:47:46.904Z,1.55
2019-02-10T10:48:50.455Z,2.50
2019-02-10T10:49:54.051Z,1.67
2019-02-10T10:50:57.700Z,2.10
2019-02-10T10:52:01.279Z,2.37
2019-02-10T10:53:04.938Z,2.30
2019-02-10T10:54:08.598Z,1.75
2019-02-10T10:55:13.148Z,2.37
2019-02-10T10:56:16.774Z,2.25
2019-02-10T10:57:20.358Z,1.92
2019-02-10T10:58:24.051Z,1.72
2019-02-10T10:59:27.646Z,2.00
2019-02-10T11:00:31.315Z,2.15
2019-02-10T11:01:34.888Z,1.57
2019-02-10T11:02:38.476Z,1.45
2019-02-10T11:03:42.096Z,1.75
2019-02-10T11:04:45.738Z,2.10
2019-02-10T11:05:49.333Z,1.75
2019-02-10T11:06:52.995Z,2.00
2019-02-10T11:07:56.685Z,1.40
2019-02-10T11:09:00.317Z,1.50
2019-02-10T11:10:05.161Z,1.55
2019-02-10T11:11:08.806Z,1.60
2019-02-10T11:12:12.466Z,1.37
2019-02-10T11:13:16.050Z,1.77
2019-02-10T11:14:19.677Z,1.37
2019-02-10T11:15:23.417Z,1.62
2019-02-10T11:16:27.037Z,1.57
2019-02-10T11:17:31.586Z,1.70
2019-02-10T11:18:35.177Z,1.60
2019-02-10T11:19:38.741Z,1.70
2019-02-10T11:20:42.278Z,1.87
2019-02-10T11:21:45.863Z,1.80
2019-02-10T11:22:49.486Z,1.60
2019-02-10T11:23:53.069Z,1.52
2019-02-10T11:24:56.658Z,1.60
2019-02-10T11:26:00.299Z,1.80
2019-02-10T11:27:04.001Z,1.50
2019-02-10T11:28:07.582Z,2.00
2019-02-10T11:29:11.170Z,1.67
2019-02-10T11:30:17.880Z,1.62
2019-02-10T11:31:21.537Z,1.90
2019-02-10T11:32:25.222Z,1.60
2019-02-10T11:33:28.857Z,2.05
2019-02-10T11:34:32.463Z,1.57
2019-02-10T11:35:36.190Z,2.65
2019-02-10T11:36:39.770Z,1.82
2019-02-10T11:37:43.367Z,1.42
2019-02-10T11:38:46.937Z,1.40
2019-02-10T11:39:50.523Z,1.60
2019-02-10T11:40:54.143Z,1.55
2019-02-10T11:41:57.726Z,1.20
2019-02-10T11:43:01.356Z,1.20
2019-02-10T11:44:05.022Z,1.30
2019-02-10T11:45:13.816Z,1.15
2019-02-10T11:46:17.414Z,1.17
2019-02-10T11:47:21.067Z,1.55
2019-02-10T11:48:24.698Z,1.30
2019-02-10T11:49:28.295Z,1.07
2019-02-10T11:50:31.868Z,1.00
2019-02-10T11:51:35.467Z,1.27
2019-02-10T11:52:39.090Z,1.12
2019-02-10T11:53:42.678Z,1.02
2019-02-10T11:54:46.262Z,1.30
2019-02-10T11:55:49.909Z,1.35
2019-02-10T11:56:53.504Z,1.10
2019-02-10T11:57:57.141Z,1.40
2019-02-10T11:59:00.784Z,1.07
2019-02-10T12:00:07.497Z,1.30
2019-02-10T12:01:11.090Z,1.30
2019-02-10T12:02:14.709Z,1.20
2019-02-10T12:03:18.280Z,2.58
2019-02-10T12:04:21.994Z,2.12
2019-02-10T12:05:25.564Z,1.45
2019-02-10T12:06:29.228Z,2.33
2019-02-10T12:07:34.458Z,1.70
2019-02-10T12:08:38.018Z,2.17
2019-02-10T12:09:41.644Z,1.55
2019-02-10T12:10:45.374Z,1.35
2019-02-10T12:11:48.958Z,1.40
2019-02-10T12:12:52.692Z,1.82
2019-02-10T12:13:56.233Z,1.80
2019-02-10T12:14:59.861Z,1.32
2019-02-10T12:16:03.448Z,1.55
2019-02-10T12:17:07.047Z,1.82
2019-02-10T12:18:10.639Z,1.10
2019-02-10T12:19:14.348Z,1.45
2019-02-10T12:20:17.959Z,1.75
2019-02-10T12:21:21.537Z,1.42
2019-02-10T12:22:25.120Z,1.27
2019-02-10T12:23:28.782Z,1.40
2019-02-10T12:24:32.699Z,1.27
2019-02-10T12:25:36.355Z,1.50
2019-02-10T12:26:39.925Z,1.20
2019-02-10T12:27:43.505Z,1.00
2019-02-10T12:28:47.107Z,1.57
2019-02-10T12:29:50.680Z,1.50
2019-02-10T12:30:54.355Z,1.55
2019-02-10T12:31:57.942Z,1.40
2019-02-10T12:33:01.597Z,1.27
2019-02-10T12:34:05.156Z,1.10
2019-02-10T12:35:10.491Z,1.35
2019-02-10T12:36:14.140Z,1.15
2019-02-10T12:37:17.727Z,1.10
2019-02-10T12:38:21.325Z,1.15
2019-02-10T12:39:24.939Z,1.12
2019-02-10T12:40:28.527Z,1.27
2019-02-10T12:41:32.116Z,1.30
2019-02-10T12:42:35.769Z,1.30
2019-02-10T12:43:39.401Z,1.92
2019-02-10T12:44:42.974Z,2.08
2019-02-10T12:45:46.558Z,2.85
2019-02-10T12:46:50.265Z,4.20
2019-02-10T12:47:53.877Z,1.52
2019-02-10T12:48:57.529Z,2.05
2019-02-10T12:50:01.114Z,2.50
2019-02-10T12:51:04.687Z,1.02
2019-02-10T12:52:08.392Z,1.75
2019-02-10T12:53:11.984Z,1.60
2019-02-10T12:54:15.720Z,1.00
2019-02-10T12:55:19.392Z,1.30
2019-02-10T12:56:22.998Z,1.57
2019-02-10T12:57:26.616Z,1.42
2019-02-10T12:58:30.480Z,1.55
2019-02-10T12:59:34.100Z,1.50
2019-02-10T13:00:37.993Z,1.87
2019-02-10T13:01:41.614Z,1.75
2019-02-10T13:02:46.080Z,1.40
2019-02-10T13:03:49.735Z,2.27
2019-02-10T13:04:53.362Z,5.47
2019-02-10T13:05:56.956Z,2.70
2019-02-10T13:07:00.525Z,7.60
2019-02-10T13:08:04.187Z,8.15
2019-02-10T13:09:09.437Z,1.45
2019-02-10T13:10:18.342Z,1.75
2019-02-10T13:11:22.030Z,1.25
2019-02-10T13:12:25.610Z,1.62
2019-02-10T13:13:29.215Z,1.25
2019-02-10T13:14:32.912Z,1.45
2019-02-10T13:15:36.482Z,1.57
2019-02-10T13:16:40.116Z,2.15
2019-02-10T13:17:43.717Z,1.17
2019-02-10T13:18:47.294Z,1.72
2019-02-10T13:19:50.897Z,1.20
2019-02-10T13:20:54.494Z,1.22
2019-02-10T13:21:58.125Z,1.67
2019-02-10T13:23:01.730Z,1.60
2019-02-10T13:24:05.327Z,1.45
2019-02-10T13:25:14.737Z,1.40
2019-02-10T13:26:18.376Z,1.02
2019-02-10T13:27:21.952Z,1.10
2019-02-10T13:28:25.619Z,1.95
2019-02-10T13:29:29.209Z,2.02
2019-02-10T13:30:33.872Z,1.90
2019-02-10T13:31:37.533Z,1.75
2019-02-10T13:32:41.179Z,5.22
2019-02-10T13:33:44.779Z,2.30
2019-02-10T13:34:48.358Z,1.20
2019-02-10T13:35:51.933Z,1.20
2019-02-10T13:36:57.003Z,1.60
2019-02-10T13:38:00.771Z,1.20
2019-02-10T13:39:06.584Z,3.10
2019-02-10T13:40:18.491Z,3.17
2019-02-10T13:41:22.092Z,2.37
2019-02-10T13:42:25.691Z,2.60
2019-02-10T13:43:33.608Z,4.92
2019-02-10T13:44:34.541Z,2.05
2019-02-10T13:45:38.152Z,2.95
2019-02-10T13:46:41.739Z,2.95
2019-02-10T13:47:45.321Z,1.00
2019-02-10T13:48:48.895Z,1.30
2019-02-10T13:49:52.526Z,1.40
2019-02-10T13:50:56.116Z,1.60
2019-02-10T13:51:59.700Z,1.55
2019-02-10T13:53:03.311Z,1.42
2019-02-10T13:54:07.034Z,1.80
2019-02-10T13:55:15.550Z,1.98
2019-02-10T13:56:19.120Z,1.22
2019-02-10T13:57:22.711Z,1.95
2019-02-10T13:58:26.330Z,1.10
2019-02-10T13:59:29.987Z,1.50
2019-02-10T14:00:33.663Z,1.30
2019-02-10T14:01:37.237Z,1.20
2019-02-10T14:02:40.804Z,1.10
2019-02-10T14:03:44.399Z,1.20
2019-02-10T14:04:48.015Z,1.70
2019-02-10T14:05:51.586Z,1.35
2019-02-10T14:06:55.166Z,1.00
2019-02-10T14:07:58.780Z,1.22
2019-02-10T14:09:02.409Z,1.15
2019-02-10T14:10:09.030Z,1.40
2019-02-10T14:11:12.641Z,1.40
2019-02-10T14:12:16.234Z,1.07
2019-02-10T14:13:19.825Z,1.25
2019-02-10T14:14:23.518Z,1.62
2019-02-10T14:15:27.113Z,1.12
2019-02-10T14:16:30.705Z,1.40
2019-02-10T14:17:34.343Z,0.90
2019-02-10T14:18:37.915Z,1.82
2019-02-10T14:19:41.499Z,1.20
2019-02-10T14:20:45.146Z,0.90
2019-02-10T14:21:48.765Z,1.20
2019-02-10T14:22:52.415Z,1.60
2019-02-10T14:23:56.074Z,1.67
2019-02-10T14:24:59.685Z,1.20
2019-02-10T14:26:03.338Z,1.30
2019-02-10T14:27:07.631Z,1.52
2019-02-10T14:28:11.267Z,1.20